West View, Pennsylvania
Current Conditions -  °F | °C
As of 10:51 AM on Saturday 20 Dec 2014 (Local Time) from KPIT Reporting Station
Overcast Overcast  
Wind Chill: -2°   Ceiling: 2300
Heat Index: -2°   Visibility: 10mi
Dew Point: -7°   Wind: 0mph
Humidity: 69%   Direction: NA
Pressure: 30.27"   Gusts: NA
Location:  40.5198°N, 80.0388°W
Report Text: KPIT 201551Z 00000KT 10SM OVC023 M02/M07 A3027 RMK AO2 SLP272 T10221072
Loading
Personal Weather Stations






























Interactive Weather Map New forecast layout! Learn more

10-Day Weather Forecast

Advertisements
Track Severe Weather on mobile